Time;durP1;ratioP1;P1;durP2;ratioP2;P2;SDS_P1;SDS_P2;PMS_P1;PMS_P2;Temp;Humidity;BMP_temperature;BMP_pressure;BME280_temperature;BME280_humidity;BME280_pressure;Samples;Min_cycle;Max_cycle;Signal;HPM_P1;HPM_P2
2022/01/07 00:01:20;;;;;;;30.98;11.88;;;;;;;;;;4955577;28;20439;-71
2022/01/07 00:03:45;;;;;;;31.65;12.15;;;;;;;;;;4955485;28;20511;-71
2022/01/07 00:06:10;;;;;;;31.85;12.73;;;;;;;;;;4971566;28;20367;-71
2022/01/07 00:08:36;;;;;;;32.85;12.70;;;;;;;;;;4971860;28;20440;-71
2022/01/07 00:11:01;;;;;;;35.65;13.00;;;;;;;;;;4971766;28;20355;-71
2022/01/07 00:13:26;;;;;;;32.15;13.23;;;;;;;;;;4989633;28;20705;-72
2022/01/07 00:15:54;;;;;;;34.92;13.10;;;;;;;;;;4988989;28;20387;-71
2022/01/07 00:18:20;;;;;;;36.22;12.35;;;;;;;;;;4989524;28;20029;-71
2022/01/07 00:20:45;;;;;;;30.38;11.65;;;;;;;;;;4990047;28;20378;-71
2022/01/07 00:23:11;;;;;;;33.78;12.13;;;;;;;;;;4971793;28;20053;-71
2022/01/07 00:25:36;;;;;;;28.40;11.52;;;;;;;;;;4955286;28;20532;-71
2022/01/07 00:28:01;;;;;;;36.47;13.45;;;;;;;;;;4989434;28;20364;-72
2022/01/07 00:30:27;;;;;;;34.45;12.95;;;;;;;;;;4971220;28;20432;-73
2022/01/07 00:32:52;;;;;;;31.58;11.75;;;;;;;;;;4989258;28;20338;-71
2022/01/07 00:35:19;;;;;;;36.95;13.95;;;;;;;;;;4955275;28;20436;-71
2022/01/07 00:37:45;;;;;;;31.40;12.57;;;;;;;;;;4990005;28;20344;-71
2022/01/07 00:40:17;;;;;;;33.53;12.77;;;;;;;;;;4971711;28;20041;-72
2022/01/07 00:42:42;;;;;;;33.88;11.68;;;;;;;;;;4988506;28;20107;-71
2022/01/07 00:45:09;;;;;;;28.40;12.30;;;;;;;;;;4971041;28;20050;-71
2022/01/07 00:47:34;;;;;;;23.10;11.23;;;;;;;;;;4971132;28;20509;-71
2022/01/07 00:50:00;;;;;;;31.52;11.30;;;;;;;;;;4989254;28;20436;-71
2022/01/07 00:52:25;;;;;;;27.95;11.05;;;;;;;;;;4989854;28;20356;-71
2022/01/07 00:54:50;;;;;;;25.80;10.70;;;;;;;;;;4989615;28;20029;-70
2022/01/07 00:57:16;;;;;;;22.17;10.60;;;;;;;;;;4988419;28;20347;-71
2022/01/07 00:59:42;;;;;;;27.27;10.77;;;;;;;;;;4988212;28;20021;-71
2022/01/07 01:02:08;;;;;;;27.77;10.90;;;;;;;;;;4982171;28;20375;-70
2022/01/07 01:04:33;;;;;;;25.50;10.68;;;;;;;;;;4951016;28;20115;-71
2022/01/07 01:06:58;;;;;;;30.23;11.05;;;;;;;;;;4969138;28;20029;-74
2022/01/07 01:09:24;;;;;;;29.23;9.82;;;;;;;;;;4969048;28;20029;-70
2022/01/07 01:11:49;;;;;;;27.25;11.00;;;;;;;;;;4951321;28;20503;-70
2022/01/07 01:14:15;;;;;;;24.05;10.15;;;;;;;;;;4969693;28;20388;-71
2022/01/07 01:16:40;;;;;;;28.63;9.93;;;;;;;;;;4970622;28;20414;-70
2022/01/07 01:19:05;;;;;;;22.95;9.50;;;;;;;;;;4969436;28;20345;-71
2022/01/07 01:21:32;;;;;;;29.70;10.00;;;;;;;;;;4970496;28;20126;-70
2022/01/07 01:23:57;;;;;;;23.70;9.00;;;;;;;;;;4951542;28;20364;-70
2022/01/07 01:26:23;;;;;;;22.88;9.35;;;;;;;;;;4951375;28;20037;-70
2022/01/07 01:28:48;;;;;;;27.02;9.32;;;;;;;;;;4935099;28;20333;-71
2022/01/07 01:31:16;;;;;;;26.58;9.52;;;;;;;;;;4969050;28;20337;-71
2022/01/07 01:33:42;;;;;;;22.77;9.48;;;;;;;;;;4951808;28;20383;-70
2022/01/07 01:36:11;;;;;;;24.20;9.57;;;;;;;;;;4968710;28;20449;-70
2022/01/07 01:38:37;;;;;;;20.20;9.07;;;;;;;;;;4951417;28;20452;-70
2022/01/07 01:41:04;;;;;;;26.63;8.93;;;;;;;;;;4968651;28;20429;-71
2022/01/07 01:43:29;;;;;;;26.55;8.93;;;;;;;;;;4951166;28;20309;-70
2022/01/07 01:45:54;;;;;;;22.42;9.25;;;;;;;;;;4951128;28;20333;-71
2022/01/07 01:48:20;;;;;;;30.92;10.40;;;;;;;;;;4968322;28;20436;-71
2022/01/07 01:50:47;;;;;;;26.67;9.15;;;;;;;;;;4968852;28;20056;-70
2022/01/07 01:53:13;;;;;;;26.80;10.15;;;;;;;;;;4968653;28;20029;-70
2022/01/07 01:55:39;;;;;;;22.77;9.57;;;;;;;;;;4950398;28;20344;-70
2022/01/07 01:58:05;;;;;;;21.67;7.93;;;;;;;;;;4968836;28;20045;-70
2022/01/07 02:00:30;;;;;;;24.83;9.18;;;;;;;;;;4950801;28;20514;-70
2022/01/07 02:02:56;;;;;;;28.83;9.02;;;;;;;;;;4935339;28;20456;-71
2022/01/07 02:05:22;;;;;;;29.52;9.77;;;;;;;;;;4951122;28;20415;-70
2022/01/07 02:07:47;;;;;;;30.83;9.05;;;;;;;;;;4968499;28;20419;-70
2022/01/07 02:10:15;;;;;;;21.60;9.07;;;;;;;;;;4954122;28;20373;-70
2022/01/07 02:12:42;;;;;;;23.70;9.05;;;;;;;;;;4971735;28;20471;-70
2022/01/07 02:15:08;;;;;;;17.85;7.85;;;;;;;;;;4954726;28;20483;-70
2022/01/07 02:17:34;;;;;;;22.02;8.57;;;;;;;;;;4973347;28;20337;-71
2022/01/07 02:19:59;;;;;;;21.30;8.27;;;;;;;;;;4972302;28;20393;-70
2022/01/07 02:22:25;;;;;;;23.60;8.10;;;;;;;;;;4954162;28;20488;-70
2022/01/07 02:24:51;;;;;;;19.98;9.00;;;;;;;;;;4954119;28;20321;-70
2022/01/07 02:27:18;;;;;;;18.23;7.88;;;;;;;;;;4971873;28;20400;-70
2022/01/07 02:29:47;;;;;;;18.40;8.45;;;;;;;;;;4972059;28;20368;-70
2022/01/07 02:32:13;;;;;;;22.65;8.57;;;;;;;;;;4971686;28;20451;-70
2022/01/07 02:34:38;;;;;;;23.40;8.80;;;;;;;;;;4954289;28;20421;-70
2022/01/07 02:37:04;;;;;;;18.13;7.72;;;;;;;;;;4971728;28;20033;-70
2022/01/07 02:39:29;;;;;;;23.83;8.05;;;;;;;;;;4971835;28;20026;-70
2022/01/07 02:41:55;;;;;;;19.50;9.45;;;;;;;;;;4954808;28;20425;-70
2022/01/07 02:44:20;;;;;;;24.38;9.07;;;;;;;;;;4953792;28;20033;-70
2022/01/07 02:46:46;;;;;;;20.20;7.95;;;;;;;;;;4953814;28;20072;-70
2022/01/07 02:49:13;;;;;;;20.50;8.95;;;;;;;;;;4971609;28;20457;-71
2022/01/07 02:51:39;;;;;;;23.42;8.45;;;;;;;;;;4971413;28;20029;-71
2022/01/07 02:54:05;;;;;;;23.17;7.75;;;;;;;;;;4953949;28;20021;-70
2022/01/07 02:56:31;;;;;;;19.20;7.68;;;;;;;;;;4953830;28;20025;-70
2022/01/07 02:58:56;;;;;;;18.90;8.88;;;;;;;;;;4970783;28;20476;-70
2022/01/07 03:01:21;;;;;;;18.63;7.78;;;;;;;;;;4971116;28;20498;-71
2022/01/07 03:03:47;;;;;;;23.15;8.45;;;;;;;;;;4937047;28;20451;-70
2022/01/07 03:06:12;;;;;;;16.38;6.90;;;;;;;;;;4970626;28;20352;-70
2022/01/07 03:08:37;;;;;;;20.40;8.55;;;;;;;;;;4953344;28;20051;-70
2022/01/07 03:11:03;;;;;;;21.25;8.30;;;;;;;;;;4971930;28;20025;-70
2022/01/07 03:13:28;;;;;;;19.95;8.25;;;;;;;;;;4970875;28;20376;-70
2022/01/07 03:15:54;;;;;;;14.63;6.47;;;;;;;;;;4953289;28;20026;-71
2022/01/07 03:18:19;;;;;;;18.90;8.15;;;;;;;;;;4970875;28;20445;-70
2022/01/07 03:20:44;;;;;;;20.00;7.40;;;;;;;;;;4970002;28;20364;-70
2022/01/07 03:23:12;;;;;;;20.17;7.28;;;;;;;;;;4972569;28;20037;-70
2022/01/07 03:25:39;;;;;;;23.65;7.32;;;;;;;;;;4953253;28;20484;-70
2022/01/07 03:28:04;;;;;;;18.60;7.47;;;;;;;;;;4971605;28;20033;-69
2022/01/07 03:30:30;;;;;;;22.70;8.13;;;;;;;;;;4971150;28;20469;-71
2022/01/07 03:32:55;;;;;;;20.38;7.35;;;;;;;;;;4970599;28;20056;-70
2022/01/07 03:35:21;;;;;;;20.20;7.88;;;;;;;;;;4953007;28;20345;-70
2022/01/07 03:37:49;;;;;;;20.13;7.25;;;;;;;;;;4952778;28;20392;-71
2022/01/07 03:40:14;;;;;;;15.80;6.78;;;;;;;;;;4970775;28;20025;-70
2022/01/07 03:42:40;;;;;;;22.00;7.10;;;;;;;;;;4952705;28;20033;-70
2022/01/07 03:45:07;;;;;;;17.20;6.97;;;;;;;;;;4970201;28;20367;-70
2022/01/07 03:47:33;;;;;;;15.82;6.70;;;;;;;;;;4970629;28;20344;-70
2022/01/07 03:49:58;;;;;;;20.50;7.28;;;;;;;;;;4952461;28;20103;-70
2022/01/07 03:52:24;;;;;;;20.67;7.53;;;;;;;;;;4970601;28;20499;-70
2022/01/07 03:54:50;;;;;;;17.85;6.47;;;;;;;;;;4937125;28;20413;-70
2022/01/07 03:57:16;;;;;;;20.15;8.18;;;;;;;;;;4970333;28;20126;-70
2022/01/07 03:59:41;;;;;;;19.25;8.02;;;;;;;;;;4970101;28;20428;-71
2022/01/07 04:02:07;;;;;;;14.82;6.30;;;;;;;;;;4970314;28;20456;-70
2022/01/07 04:04:32;;;;;;;17.95;6.80;;;;;;;;;;4969593;28;20392;-71
2022/01/07 04:06:57;;;;;;;17.58;6.90;;;;;;;;;;4970241;28;20543;-72
2022/01/07 04:09:23;;;;;;;17.15;6.10;;;;;;;;;;4970682;28;20456;-70
2022/01/07 04:11:48;;;;;;;17.60;5.78;;;;;;;;;;4970623;28;20363;-70
2022/01/07 04:14:13;;;;;;;21.55;7.10;;;;;;;;;;4970847;28;20427;-69
2022/01/07 04:16:39;;;;;;;18.63;6.10;;;;;;;;;;4969677;28;20387;-70
2022/01/07 04:19:04;;;;;;;17.17;6.80;;;;;;;;;;4952903;28;20132;-70
2022/01/07 04:21:29;;;;;;;16.92;6.65;;;;;;;;;;4951842;28;20037;-70
2022/01/07 04:23:55;;;;;;;17.83;6.05;;;;;;;;;;4970008;28;20504;-71
2022/01/07 04:26:20;;;;;;;16.80;6.85;;;;;;;;;;4952463;28;20425;-70
2022/01/07 04:28:45;;;;;;;15.65;5.93;;;;;;;;;;4970913;28;20440;-70
2022/01/07 04:31:10;;;;;;;18.50;7.10;;;;;;;;;;4969444;28;20336;-70
2022/01/07 04:33:36;;;;;;;22.35;7.03;;;;;;;;;;4951974;28;20405;-70
2022/01/07 04:36:01;;;;;;;18.55;6.13;;;;;;;;;;4970896;28;20407;-71
2022/01/07 04:38:27;;;;;;;14.55;5.57;;;;;;;;;;4952037;28;20364;-70
2022/01/07 04:40:52;;;;;;;18.60;7.35;;;;;;;;;;4952278;28;20436;-70
2022/01/07 04:43:18;;;;;;;15.25;6.57;;;;;;;;;;4970399;28;20364;-70
2022/01/07 04:45:43;;;;;;;16.15;6.20;;;;;;;;;;4951935;28;20345;-70
2022/01/07 04:48:09;;;;;;;15.30;7.15;;;;;;;;;;4969557;28;20578;-69
2022/01/07 04:50:35;;;;;;;16.25;6.47;;;;;;;;;;4951738;28;20025;-69
2022/01/07 04:53:00;;;;;;;10.90;5.45;;;;;;;;;;4969264;28;20368;-70
2022/01/07 04:55:36;;;;;;;24.17;7.78;;;;;;;;;;4952216;28;20075;-69
2022/01/07 04:58:02;;;;;;;18.17;6.18;;;;;;;;;;4952631;28;20368;-70
2022/01/07 05:00:28;;;;;;;19.20;6.82;;;;;;;;;;4968567;28;20503;-70
2022/01/07 05:02:53;;;;;;;17.80;5.60;;;;;;;;;;4968718;28;20452;-70
2022/01/07 05:05:18;;;;;;;15.90;6.05;;;;;;;;;;4969213;28;20132;-70
2022/01/07 05:07:44;;;;;;;16.05;6.00;;;;;;;;;;4970758;28;20324;-70
2022/01/07 05:10:12;;;;;;;18.85;7.45;;;;;;;;;;4969308;28;20462;-70
2022/01/07 05:12:37;;;;;;;14.25;5.88;;;;;;;;;;4951855;28;20294;-69
2022/01/07 05:15:04;;;;;;;19.20;6.72;;;;;;;;;;4951072;28;20415;-70
2022/01/07 05:17:30;;;;;;;17.58;5.85;;;;;;;;;;4969363;28;20641;-70
2022/01/07 05:19:55;;;;;;;17.85;6.47;;;;;;;;;;4969072;28;20360;-70
2022/01/07 05:22:20;;;;;;;15.82;5.28;;;;;;;;;;4969031;28;20376;-70
2022/01/07 05:24:46;;;;;;;13.45;6.03;;;;;;;;;;4969088;28;20306;-70
2022/01/07 05:27:11;;;;;;;16.70;6.93;;;;;;;;;;4969227;28;20416;-70
2022/01/07 05:29:36;;;;;;;14.30;5.32;;;;;;;;;;4951516;28;20409;-69
2022/01/07 05:32:03;;;;;;;18.10;5.78;;;;;;;;;;4969221;28;20138;-70
2022/01/07 05:34:28;;;;;;;17.40;6.50;;;;;;;;;;4969265;28;20364;-70
2022/01/07 05:36:54;;;;;;;11.82;5.70;;;;;;;;;;4908629;28;20433;-70
2022/01/07 05:39:19;;;;;;;17.73;5.90;;;;;;;;;;4956345;28;20440;-69
2022/01/07 05:41:44;;;;;;;15.55;6.75;;;;;;;;;;4969332;28;20367;-69
2022/01/07 05:44:10;;;;;;;17.35;6.68;;;;;;;;;;4969349;28;20583;-71
2022/01/07 05:46:35;;;;;;;17.48;6.05;;;;;;;;;;4973787;28;20409;-70
2022/01/07 05:49:00;;;;;;;23.55;7.35;;;;;;;;;;4973166;28;20373;-70
2022/01/07 05:51:26;;;;;;;16.02;6.30;;;;;;;;;;4972712;28;20464;-69
2022/01/07 05:53:51;;;;;;;22.23;7.07;;;;;;;;;;4972735;28;20313;-69
2022/01/07 05:56:16;;;;;;;16.33;6.38;;;;;;;;;;4954766;28;20436;-70
2022/01/07 05:58:42;;;;;;;19.80;7.25;;;;;;;;;;4972418;28;20041;-70
2022/01/07 06:01:09;;;;;;;18.40;7.55;;;;;;;;;;4954642;28;20344;-71
2022/01/07 06:03:35;;;;;;;16.83;7.13;;;;;;;;;;4972973;28;20356;-69
2022/01/07 06:06:00;;;;;;;19.70;7.68;;;;;;;;;;4974043;28;20479;-69
2022/01/07 06:08:26;;;;;;;21.27;8.25;;;;;;;;;;4955385;28;20124;-70
2022/01/07 06:10:51;;;;;;;16.30;6.65;;;;;;;;;;4971949;28;20567;-69
2022/01/07 06:13:16;;;;;;;19.27;8.77;;;;;;;;;;4972588;28;20325;-69
2022/01/07 06:15:42;;;;;;;20.98;7.38;;;;;;;;;;4972027;28;20159;-70
2022/01/07 06:18:07;;;;;;;15.10;6.75;;;;;;;;;;4954247;28;20372;-69
2022/01/07 06:20:32;;;;;;;18.33;7.82;;;;;;;;;;4971811;28;20460;-70
2022/01/07 06:22:58;;;;;;;21.10;7.40;;;;;;;;;;4954345;28;20321;-69
2022/01/07 06:25:23;;;;;;;19.02;7.43;;;;;;;;;;4972329;28;20372;-70
2022/01/07 06:27:49;;;;;;;16.95;7.78;;;;;;;;;;4954560;28;20502;-69
2022/01/07 06:30:14;;;;;;;19.42;7.50;;;;;;;;;;4972435;28;20417;-70
2022/01/07 06:32:39;;;;;;;17.45;7.00;;;;;;;;;;4971711;28;20420;-70
2022/01/07 06:35:06;;;;;;;15.07;8.05;;;;;;;;;;4972485;28;20294;-71
2022/01/07 06:37:32;;;;;;;20.45;8.50;;;;;;;;;;4954046;28;20033;-69
2022/01/07 06:39:58;;;;;;;21.80;8.35;;;;;;;;;;4954490;28;20546;-71
2022/01/07 06:42:23;;;;;;;19.65;7.72;;;;;;;;;;4972997;28;20519;-71
2022/01/07 06:44:49;;;;;;;20.40;8.00;;;;;;;;;;4971715;28;20499;-69
2022/01/07 06:47:14;;;;;;;18.13;8.20;;;;;;;;;;4971735;28;20423;-69
2022/01/07 06:49:39;;;;;;;22.90;8.60;;;;;;;;;;4954488;28;20436;-69
2022/01/07 06:52:05;;;;;;;16.75;8.23;;;;;;;;;;4954163;28;20512;-70
2022/01/07 06:54:31;;;;;;;19.42;8.95;;;;;;;;;;4971346;28;20345;-69
2022/01/07 06:56:57;;;;;;;19.58;8.85;;;;;;;;;;4969458;28;20049;-69
2022/01/07 06:59:22;;;;;;;23.63;8.80;;;;;;;;;;4953609;28;20460;-69
2022/01/07 07:01:49;;;;;;;21.88;9.10;;;;;;;;;;4953520;28;20095;-69
2022/01/07 07:04:15;;;;;;;21.27;9.75;;;;;;;;;;4971494;28;20364;-69
2022/01/07 07:06:41;;;;;;;21.50;9.73;;;;;;;;;;4953908;28;20499;-70
2022/01/07 07:09:08;;;;;;;22.45;9.95;;;;;;;;;;4953601;28;20503;-69
2022/01/07 07:11:33;;;;;;;20.42;9.30;;;;;;;;;;4953871;28;20345;-69
2022/01/07 07:13:59;;;;;;;25.75;9.50;;;;;;;;;;4953417;28;20367;-69
2022/01/07 07:16:24;;;;;;;26.15;10.05;;;;;;;;;;4971090;28;20390;-70
2022/01/07 07:18:49;;;;;;;26.27;10.85;;;;;;;;;;4971735;28;20376;-69
2022/01/07 07:21:15;;;;;;;24.50;10.63;;;;;;;;;;4953106;28;20488;-69
2022/01/07 07:23:40;;;;;;;22.45;9.73;;;;;;;;;;4972146;28;20432;-70
2022/01/07 07:26:06;;;;;;;23.30;9.07;;;;;;;;;;4970782;28;20324;-69
2022/01/07 07:28:33;;;;;;;24.33;9.50;;;;;;;;;;4953381;28;20393;-70
2022/01/07 07:31:00;;;;;;;22.48;9.27;;;;;;;;;;4953713;28;20354;-70
2022/01/07 07:38:45;;;;;;;25.95;9.88;;;;;;;;;;4970618;28;20368;-69
2022/01/07 07:41:11;;;;;;;24.00;9.07;;;;;;;;;;4970850;28;20321;-69
2022/01/07 07:43:37;;;;;;;22.48;10.38;;;;;;;;;;4953634;28;20393;-69
2022/01/07 07:46:03;;;;;;;22.42;9.98;;;;;;;;;;4952585;28;20455;-69
2022/01/07 07:48:30;;;;;;;25.30;9.95;;;;;;;;;;4970451;28;20384;-69
2022/01/07 07:50:55;;;;;;;19.48;9.55;;;;;;;;;;4952487;28;20332;-69
2022/01/07 07:53:21;;;;;;;23.27;10.10;;;;;;;;;;4971048;28;20075;-69
2022/01/07 07:55:51;;;;;;;23.33;9.15;;;;;;;;;;4970594;28;20313;-69
2022/01/07 07:58:16;;;;;;;22.42;10.25;;;;;;;;;;4952800;28;20053;-70
2022/01/07 08:00:41;;;;;;;24.30;9.43;;;;;;;;;;4970249;28;20022;-69
2022/01/07 08:03:07;;;;;;;24.23;9.38;;;;;;;;;;4970005;28;20532;-69
2022/01/07 08:05:32;;;;;;;22.67;10.07;;;;;;;;;;4952323;28;20433;-69
2022/01/07 08:08:02;;;;;;;19.52;9.60;;;;;;;;;;4968452;28;20464;-69
2022/01/07 08:10:28;;;;;;;18.33;8.63;;;;;;;;;;4970242;28;20468;-70
2022/01/07 08:13:14;;;;;;;19.88;9.68;;;;;;;;;;4971267;28;20378;-70
2022/01/07 08:15:58;;;;;;;19.85;9.63;;;;;;;;;;4970158;28;20437;-70
2022/01/07 08:18:31;;;;;;;21.88;9.38;;;;;;;;;;4969717;28;20511;-70
2022/01/07 08:21:00;;;;;;;22.58;10.50;;;;;;;;;;4970943;28;20412;-69
2022/01/07 08:23:26;;;;;;;23.13;10.55;;;;;;;;;;4970337;28;20447;-70
2022/01/07 08:25:51;;;;;;;23.02;9.50;;;;;;;;;;4951825;28;20429;-70
2022/01/07 08:28:18;;;;;;;20.63;8.95;;;;;;;;;;4970281;28;20428;-70
2022/01/07 08:31:01;;;;;;;19.17;8.45;;;;;;;;;;4969487;28;20460;-70
2022/01/07 08:36:13;;;;;;;21.20;10.18;;;;;;;;;;4969646;28;20426;-70
2022/01/07 08:38:38;;;;;;;24.15;9.52;;;;;;;;;;4951799;28;20464;-70
2022/01/07 08:41:03;;;;;;;23.48;9.55;;;;;;;;;;4969552;28;20342;-70
2022/01/07 08:43:29;;;;;;;20.95;9.70;;;;;;;;;;4968988;28;20413;-70
2022/01/07 08:45:54;;;;;;;21.73;9.40;;;;;;;;;;4951793;28;20500;-70
2022/01/07 08:48:20;;;;;;;20.45;10.43;;;;;;;;;;4970462;28;20037;-71
2022/01/07 08:50:45;;;;;;;23.27;10.18;;;;;;;;;;4969653;28;20412;-70
2022/01/07 08:53:11;;;;;;;23.42;9.50;;;;;;;;;;4936460;28;20341;-70
2022/01/07 08:55:36;;;;;;;27.80;9.73;;;;;;;;;;4969481;28;20391;-70
2022/01/07 08:58:03;;;;;;;21.45;9.38;;;;;;;;;;4969370;28;20176;-70
2022/01/07 09:00:28;;;;;;;25.42;10.30;;;;;;;;;;4970320;28;20356;-70
2022/01/07 09:02:54;;;;;;;26.25;9.85;;;;;;;;;;4969125;28;20408;-70
2022/01/07 09:05:19;;;;;;;25.48;10.13;;;;;;;;;;4952062;28;20559;-70
2022/01/07 09:07:44;;;;;;;22.58;10.90;;;;;;;;;;4967763;28;20364;-70
2022/01/07 09:10:10;;;;;;;24.25;9.32;;;;;;;;;;4968887;28;20389;-70
2022/01/07 09:12:35;;;;;;;22.00;9.65;;;;;;;;;;4969032;28;20100;-71
2022/01/07 09:15:00;;;;;;;20.95;9.13;;;;;;;;;;4969163;28;20313;-70
2022/01/07 09:17:26;;;;;;;24.13;9.70;;;;;;;;;;4968697;28;20425;-70
2022/01/07 09:19:52;;;;;;;24.60;10.23;;;;;;;;;;4968482;28;20451;-70
2022/01/07 09:22:17;;;;;;;26.08;9.38;;;;;;;;;;4968944;28;20037;-70
2022/01/07 09:24:42;;;;;;;20.90;8.85;;;;;;;;;;4970063;28;20532;-70
2022/01/07 09:27:08;;;;;;;21.13;9.38;;;;;;;;;;4970410;28;20381;-70
2022/01/07 09:29:33;;;;;;;20.23;9.00;;;;;;;;;;4969120;28;20452;-71
2022/01/07 09:31:59;;;;;;;21.10;8.52;;;;;;;;;;4970376;28;20416;-71
2022/01/07 09:34:24;;;;;;;20.98;9.05;;;;;;;;;;4968744;28;20353;-70
2022/01/07 09:36:49;;;;;;;19.95;9.27;;;;;;;;;;4968934;28;20056;-71
2022/01/07 09:39:15;;;;;;;18.67;9.07;;;;;;;;;;4951375;28;20345;-72
2022/01/07 09:41:40;;;;;;;23.98;9.40;;;;;;;;;;4951060;28;20021;-71
2022/01/07 09:44:10;;;;;;;20.98;8.93;;;;;;;;;;4969879;28;20425;-71
2022/01/07 09:46:35;;;;;;;19.83;8.88;;;;;;;;;;4951485;28;20508;-71
2022/01/07 09:49:00;;;;;;;21.40;9.25;;;;;;;;;;4968667;28;20416;-71
2022/01/07 09:51:27;;;;;;;19.90;8.27;;;;;;;;;;4968840;28;20409;-72
2022/01/07 09:53:52;;;;;;;22.63;8.23;;;;;;;;;;4969473;28;20401;-71
2022/01/07 09:56:19;;;;;;;16.15;8.77;;;;;;;;;;4967581;28;20463;-72
2022/01/07 09:58:45;;;;;;;20.60;9.15;;;;;;;;;;4968360;28;20442;-72
2022/01/07 10:01:13;;;;;;;20.48;8.35;;;;;;;;;;4950600;28;20116;-72
2022/01/07 10:03:43;;;;;;;21.70;9.65;;;;;;;;;;4969241;28;20393;-72
2022/01/07 10:06:22;;;;;;;22.92;10.93;;;;;;;;;;4951049;28;20418;-72
2022/01/07 10:09:10;;;;;;;25.23;11.07;;;;;;;;;;4968238;28;20464;-72
2022/01/07 10:11:36;;;;;;;22.67;8.80;;;;;;;;;;4951452;28;20328;-72
2022/01/07 10:14:22;;;;;;;21.42;8.70;;;;;;;;;;4951000;28;20317;-72
2022/01/07 10:16:55;;;;;;;21.23;8.98;;;;;;;;;;4968520;28;20507;-72
2022/01/07 10:19:28;;;;;;;18.80;8.48;;;;;;;;;;4968625;28;20432;-72
2022/01/07 10:22:02;;;;;;;28.55;10.23;;;;;;;;;;4968290;28;20044;-72
2022/01/07 10:24:28;;;;;;;23.35;9.10;;;;;;;;;;4968209;28;20514;-73
2022/01/07 10:27:20;;;;;;;18.90;8.85;;;;;;;;;;4950648;28;20457;-72
2022/01/07 10:29:46;;;;;;;23.40;9.15;;;;;;;;;;4965439;28;20353;-72
2022/01/07 10:32:18;;;;;;;23.05;9.63;;;;;;;;;;4954258;28;20316;-72
2022/01/07 10:35:11;;;;;;;23.30;9.10;;;;;;;;;;4972722;28;20329;-72
2022/01/07 10:37:45;;;;;;;17.95;7.10;;;;;;;;;;4954017;28;20444;-73
2022/01/07 10:40:31;;;;;;;19.13;8.02;;;;;;;;;;4972276;28;20037;-72
2022/01/07 10:43:09;;;;;;;19.60;9.38;;;;;;;;;;4954029;28;20406;-73
2022/01/07 10:45:35;;;;;;;19.05;7.53;;;;;;;;;;4953914;28;20441;-73
2022/01/07 10:48:00;;;;;;;22.95;10.02;;;;;;;;;;4971330;28;20376;-72
2022/01/07 10:50:27;;;;;;;20.27;7.63;;;;;;;;;;4971432;28;20033;-73
2022/01/07 10:53:13;;;;;;;20.70;8.00;;;;;;;;;;4973419;28;20328;-73
2022/01/07 10:55:39;;;;;;;16.58;8.15;;;;;;;;;;4937686;28;20400;-72
2022/01/07 10:58:04;;;;;;;21.98;9.00;;;;;;;;;;4971145;28;20376;-72
2022/01/07 11:00:35;;;;;;;16.15;7.78;;;;;;;;;;4954475;28;20496;-72
2022/01/07 11:03:01;;;;;;;21.63;8.27;;;;;;;;;;4953437;28;20388;-72
2022/01/07 11:05:26;;;;;;;21.75;8.80;;;;;;;;;;4953912;28;20096;-73
2022/01/07 11:07:54;;;;;;;19.65;8.13;;;;;;;;;;4953065;28;20341;-72
2022/01/07 11:10:19;;;;;;;17.40;8.43;;;;;;;;;;4937447;28;20406;-72
2022/01/07 11:12:45;;;;;;;19.02;8.35;;;;;;;;;;4971530;28;20373;-73
2022/01/07 11:15:10;;;;;;;20.67;9.35;;;;;;;;;;4971313;28;20384;-72
2022/01/07 11:17:37;;;;;;;21.15;7.47;;;;;;;;;;4972223;28;20038;-73
2022/01/07 11:20:05;;;;;;;20.15;8.43;;;;;;;;;;4971064;28;20433;-72
2022/01/07 11:22:31;;;;;;;21.73;8.85;;;;;;;;;;4953761;28;20457;-72
2022/01/07 11:24:56;;;;;;;19.63;8.23;;;;;;;;;;4953219;28;20436;-72
2022/01/07 11:27:26;;;;;;;17.42;8.55;;;;;;;;;;4971093;28;20433;-73
2022/01/07 11:29:52;;;;;;;;;;;;;;;;;;4953931;28;20432;-72
2022/01/07 11:32:40;;;;;;;14.00;7.43;;;;;;;;;;4970900;28;20471;-72
2022/01/07 11:35:31;;;;;;;15.95;7.32;;;;;;;;;;4971518;28;20425;-72
2022/01/07 11:37:58;;;;;;;17.63;7.30;;;;;;;;;;4966565;28;20443;-72
2022/01/07 11:40:32;;;;;;;17.00;8.15;;;;;;;;;;4952769;28;20456;-72
2022/01/07 11:43:04;;;;;;;15.15;6.53;;;;;;;;;;4970256;28;20037;-73
2022/01/07 11:45:40;;;;;;;18.17;7.97;;;;;;;;;;4952356;28;20447;-72
2022/01/07 11:48:26;;;;;;;18.00;7.18;;;;;;;;;;4952851;28;20053;-72
2022/01/07 11:51:01;;;;;;;16.15;6.55;;;;;;;;;;4953456;28;20539;-73
2022/01/07 11:53:29;;;;;;;17.92;6.93;;;;;;;;;;4971331;28;20025;-72
2022/01/07 11:55:58;;;;;;;14.73;7.18;;;;;;;;;;4969052;28;20460;-72
2022/01/07 11:58:47;;;;;;;17.38;6.80;;;;;;;;;;4969875;28;20468;-73
2022/01/07 12:01:34;;;;;;;16.98;7.95;;;;;;;;;;4970026;28;20407;-72
2022/01/07 12:04:03;;;;;;;16.15;7.38;;;;;;;;;;4971354;28;20021;-73
2022/01/07 12:06:29;;;;;;;19.57;7.27;;;;;;;;;;4952215;28;20444;-73
2022/01/07 12:08:57;;;;;;;18.85;7.47;;;;;;;;;;4968432;28;20472;-73
2022/01/07 12:11:50;;;;;;;22.67;7.30;;;;;;;;;;4968620;28;20061;-73
2022/01/07 12:14:32;;;;;;;14.00;7.05;;;;;;;;;;4952376;28;20029;-73
2022/01/07 12:16:58;;;;;;;15.10;7.20;;;;;;;;;;4952909;28;20026;-73
2022/01/07 12:19:36;;;;;;;15.85;6.70;;;;;;;;;;4969748;28;20333;-72
2022/01/07 12:22:03;;;;;;;20.23;7.47;;;;;;;;;;4969781;28;20022;-72
2022/01/07 12:24:30;;;;;;;19.38;7.43;;;;;;;;;;4969579;28;20083;-72
2022/01/07 12:27:07;;;;;;;21.67;8.20;;;;;;;;;;4936326;28;20539;-72
2022/01/07 12:29:35;;;;;;;14.52;6.70;;;;;;;;;;4970866;28;20380;-72
2022/01/07 12:32:03;;;;;;;18.70;6.72;;;;;;;;;;4969589;28;20364;-73
2022/01/07 12:34:33;;;;;;;18.02;7.80;;;;;;;;;;4969338;28;20060;-73
2022/01/07 12:37:07;;;;;;;16.90;7.45;;;;;;;;;;4952262;28;20461;-72
2022/01/07 12:39:34;;;;;;;16.42;6.88;;;;;;;;;;4951520;28;20380;-73
2022/01/07 12:42:00;;;;;;;18.45;7.75;;;;;;;;;;4951624;28;20023;-72
2022/01/07 12:44:25;;;;;;;18.15;7.22;;;;;;;;;;4951307;28;20432;-73
2022/01/07 12:46:56;;;;;;;17.08;6.63;;;;;;;;;;4951887;28;20510;-73
2022/01/07 12:49:51;;;;;;;17.45;7.65;;;;;;;;;;4969388;28;20563;-72
2022/01/07 12:52:19;;;;;;;19.02;7.40;;;;;;;;;;4969836;28;20531;-72
2022/01/07 12:55:02;;;;;;;15.55;7.32;;;;;;;;;;4968400;28;20530;-72
2022/01/07 12:57:29;;;;;;;18.85;7.85;;;;;;;;;;4951323;28;20398;-72
2022/01/07 13:00:08;;;;;;;18.67;8.07;;;;;;;;;;4969771;28;20026;-73
2022/01/07 13:02:34;;;;;;;21.42;7.88;;;;;;;;;;4969433;28;20452;-72
2022/01/07 13:05:14;;;;;;;16.75;8.13;;;;;;;;;;4970029;28;20418;-72
2022/01/07 13:07:48;;;;;;;19.45;7.53;;;;;;;;;;4969319;28;20142;-72
2022/01/07 13:10:23;;;;;;;15.57;7.22;;;;;;;;;;4968608;28;20091;-72
2022/01/07 13:13:22;;;;;;;15.20;7.47;;;;;;;;;;4969134;28;20498;-72
2022/01/07 13:15:53;;;;;;;18.70;8.38;;;;;;;;;;4951766;28;20329;-73
2022/01/07 13:18:23;;;;;;;18.83;7.85;;;;;;;;;;4968637;28;20425;-72
2022/01/07 13:20:50;;;;;;;18.67;7.53;;;;;;;;;;4970993;28;20388;-72
2022/01/07 13:23:16;;;;;;;17.45;7.63;;;;;;;;;;4950999;28;20065;-72
2022/01/07 13:25:42;;;;;;;15.23;6.70;;;;;;;;;;4952234;28;20459;-72
2022/01/07 13:28:07;;;;;;;21.27;7.93;;;;;;;;;;4969003;28;20425;-73
2022/01/07 13:30:43;;;;;;;16.15;6.55;;;;;;;;;;4951995;28;20464;-72
2022/01/07 13:33:11;;;;;;;21.48;7.40;;;;;;;;;;4969366;28;20417;-72
2022/01/07 13:35:37;;;;;;;21.58;7.90;;;;;;;;;;4951252;28;20044;-72
2022/01/07 13:38:11;;;;;;;15.95;7.10;;;;;;;;;;4951072;28;20399;-72
2022/01/07 13:40:37;;;;;;;15.27;7.68;;;;;;;;;;4951271;28;20484;-73
2022/01/07 13:43:13;;;;;;;20.77;7.22;;;;;;;;;;4968627;28;20384;-72
2022/01/07 13:45:39;;;;;;;22.13;7.53;;;;;;;;;;4952090;28;20348;-73
2022/01/07 13:48:12;;;;;;;17.27;7.35;;;;;;;;;;4968739;28;20352;-73
2022/01/07 13:50:40;;;;;;;17.40;7.10;;;;;;;;;;4968894;28;20490;-72
2022/01/07 13:53:18;;;;;;;14.00;6.35;;;;;;;;;;4968643;28;20353;-72
2022/01/07 13:55:45;;;;;;;18.02;6.82;;;;;;;;;;4968808;28;20317;-73
2022/01/07 13:58:16;;;;;;;15.90;7.40;;;;;;;;;;4969826;28;20353;-72
2022/01/07 14:00:43;;;;;;;17.10;7.07;;;;;;;;;;4951330;28;20528;-72
2022/01/07 14:03:10;;;;;;;16.13;7.40;;;;;;;;;;4951066;28;20065;-72
2022/01/07 14:05:35;;;;;;;21.08;7.28;;;;;;;;;;4951964;28;20492;-72
2022/01/07 14:08:06;;;;;;;21.15;7.72;;;;;;;;;;4954523;28;20455;-72
2022/01/07 14:10:34;;;;;;;17.38;7.05;;;;;;;;;;4971799;28;20425;-72
2022/01/07 14:13:17;;;;;;;18.17;8.50;;;;;;;;;;4955305;28;20317;-72
2022/01/07 14:15:45;;;;;;;22.25;7.88;;;;;;;;;;4972486;28;20052;-72
2022/01/07 14:18:15;;;;;;;14.85;7.55;;;;;;;;;;4954340;28;20437;-72
2022/01/07 14:20:44;;;;;;;13.52;6.55;;;;;;;;;;4954615;28;20360;-72
2022/01/07 14:23:12;;;;;;;16.38;7.15;;;;;;;;;;4972652;28;20029;-72
2022/01/07 14:25:37;;;;;;;18.52;8.18;;;;;;;;;;4971933;28;20356;-72
2022/01/07 14:28:03;;;;;;;23.80;8.40;;;;;;;;;;4953922;28;20344;-72
2022/01/07 14:30:28;;;;;;;14.90;7.07;;;;;;;;;;4954208;28;20386;-72
2022/01/07 14:32:53;;;;;;;25.83;8.40;;;;;;;;;;4954392;28;20313;-72
2022/01/07 14:35:19;;;;;;;25.10;10.20;;;;;;;;;;4969988;28;20316;-72
2022/01/07 14:37:44;;;;;;;18.02;7.93;;;;;;;;;;4954481;28;20317;-72
2022/01/07 14:40:10;;;;;;;20.88;8.93;;;;;;;;;;4955044;28;20340;-72